sensor_id;sensor_type;location;lat;lon;timestamp;pressure;altitude;pressure_sealevel;temperature;humidity
27685;BME280;46113;50.130;8.526;2023-03-01T05:02:11;100019.84;;;-5.14;65.79
27685;BME280;46113;50.130;8.526;2023-03-01T05:04:37;100015.44;;;-5.19;65.11
27685;BME280;46113;50.130;8.526;2023-03-01T05:07:05;100015.50;;;-5.16;65.56
27685;BME280;46113;50.130;8.526;2023-03-01T05:09:32;100018.13;;;-5.15;65.71
27685;BME280;46113;50.130;8.526;2023-03-01T05:11:58;100023.28;;;-5.15;65.61
27685;BME280;46113;50.130;8.526;2023-03-01T05:14:25;100019.94;;;-5.09;65.83
27685;BME280;46113;50.130;8.526;2023-03-01T05:16:51;100023.09;;;-5.24;65.42
27685;BME280;46113;50.130;8.526;2023-03-01T05:19:19;100018.25;;;-5.07;65.29
27685;BME280;46113;50.130;8.526;2023-03-01T05:21:49;100018.13;;;-5.13;64.98
27685;BME280;46113;50.130;8.526;2023-03-01T05:24:33;100018.78;;;-5.23;65.18
27685;BME280;46113;50.130;8.526;2023-03-01T05:27:01;100026.34;;;-5.34;65.25
27685;BME280;46113;50.130;8.526;2023-03-01T05:29:30;100022.22;;;-5.24;65.20
27685;BME280;46113;50.130;8.526;2023-03-01T05:31:59;100009.25;;;-5.29;65.78
27685;BME280;46113;50.130;8.526;2023-03-01T05:34:32;100015.41;;;-5.21;65.87
27685;BME280;46113;50.130;8.526;2023-03-01T05:36:59;100011.34;;;-5.09;64.95
27685;BME280;46113;50.130;8.526;2023-03-01T05:39:28;100008.50;;;-5.22;64.96
27685;BME280;46113;50.130;8.526;2023-03-01T05:41:57;100006.78;;;-5.23;65.42
27685;BME280;46113;50.130;8.526;2023-03-01T05:44:24;100011.13;;;-5.20;66.16
27685;BME280;46113;50.130;8.526;2023-03-01T05:46:52;100009.34;;;-5.23;64.89
27685;BME280;46113;50.130;8.526;2023-03-01T05:49:19;100010.13;;;-5.27;64.99
27685;BME280;46113;50.130;8.526;2023-03-01T05:51:50;100016.50;;;-5.09;64.82
27685;BME280;46113;50.130;8.526;2023-03-01T05:54:18;100010.03;;;-5.33;66.24
27685;BME280;46113;50.130;8.526;2023-03-01T05:56:45;100017.31;;;-5.10;64.57
27685;BME280;46113;50.130;8.526;2023-03-01T05:59:21;100015.66;;;-5.08;64.63
27685;BME280;46113;50.130;8.526;2023-03-01T06:01:48;100011.19;;;-5.17;64.73
27685;BME280;46113;50.130;8.526;2023-03-01T06:04:15;100003.44;;;-5.16;65.19
27685;BME280;46113;50.130;8.526;2023-03-01T06:06:41;100003.44;;;-5.17;65.40
27685;BME280;46113;50.130;8.526;2023-03-01T06:09:08;100006.91;;;-5.15;65.61
27685;BME280;46113;50.130;8.526;2023-03-01T06:11:39;100007.94;;;-5.05;65.53
27685;BME280;46113;50.130;8.526;2023-03-01T06:14:09;100011.50;;;-5.00;65.55
27685;BME280;46113;50.130;8.526;2023-03-01T06:16:39;100013.00;;;-5.11;64.58
27685;BME280;46113;50.130;8.526;2023-03-01T06:19:46;100008.94;;;-5.45;65.84
27685;BME280;46113;50.130;8.526;2023-03-01T06:23:08;100005.88;;;-5.25;65.50
27685;BME280;46113;50.130;8.526;2023-03-01T06:25:39;99994.09;;;-5.12;66.17
27685;BME280;46113;50.130;8.526;2023-03-01T06:28:06;100002.06;;;-4.98;64.94
27685;BME280;46113;50.130;8.526;2023-03-01T06:30:32;99999.69;;;-4.85;65.06
27685;BME280;46113;50.130;8.526;2023-03-01T06:33:00;99996.25;;;-4.86;65.24
27685;BME280;46113;50.130;8.526;2023-03-01T06:35:30;99988.41;;;-4.91;64.72
27685;BME280;46113;50.130;8.526;2023-03-01T06:38:02;99981.06;;;-4.69;64.65
27685;BME280;46113;50.130;8.526;2023-03-01T06:40:30;99978.34;;;-4.77;64.68
27685;BME280;46113;50.130;8.526;2023-03-01T06:43:06;99979.47;;;-4.59;64.86
27685;BME280;46113;50.130;8.526;2023-03-01T06:49:00;99981.69;;;-4.25;62.57
27685;BME280;46113;50.130;8.526;2023-03-01T06:51:26;99979.84;;;-4.34;62.74
27685;BME280;46113;50.130;8.526;2023-03-01T06:53:53;99989.41;;;-4.30;62.62
27685;BME280;46113;50.130;8.526;2023-03-01T06:56:19;99991.25;;;-4.21;62.21
27685;BME280;46113;50.130;8.526;2023-03-01T06:58:46;99981.75;;;-4.22;63.29
27685;BME280;46113;50.130;8.526;2023-03-01T08:43:59;99932.25;;;-1.51;50.86
27685;BME280;46113;50.130;8.526;2023-03-01T08:46:32;99939.06;;;-1.86;52.25
27685;BME280;46113;50.130;8.526;2023-03-01T08:48:59;99927.94;;;-1.49;51.01
27685;BME280;46113;50.130;8.526;2023-03-01T08:51:26;99921.91;;;-1.37;51.67
27685;BME280;46113;50.130;8.526;2023-03-01T08:53:52;99927.09;;;-1.24;51.49
27685;BME280;46113;50.130;8.526;2023-03-01T08:56:19;99920.09;;;-1.61;49.78
27685;BME280;46113;50.130;8.526;2023-03-01T08:58:47;99915.88;;;-1.09;49.58
27685;BME280;46113;50.130;8.526;2023-03-01T09:01:17;99915.00;;;-1.16;49.29
27685;BME280;46113;50.130;8.526;2023-03-01T09:03:44;99921.97;;;-0.79;48.31
27685;BME280;46113;50.130;8.526;2023-03-01T09:06:11;99910.63;;;-1.40;47.73
27685;BME280;46113;50.130;8.526;2023-03-01T09:08:40;99901.13;;;-1.18;48.64
27685;BME280;46113;50.130;8.526;2023-03-01T09:11:10;99908.06;;;-1.22;47.51
27685;BME280;46113;50.130;8.526;2023-03-01T09:13:37;99904.63;;;-0.94;46.73
27685;BME280;46113;50.130;8.526;2023-03-01T09:16:06;99913.28;;;-0.75;46.49
27685;BME280;46113;50.130;8.526;2023-03-01T09:18:34;99906.31;;;-0.54;46.91
27685;BME280;46113;50.130;8.526;2023-03-01T09:21:09;99899.41;;;-0.72;46.39
27685;BME280;46113;50.130;8.526;2023-03-01T09:23:38;99896.78;;;-0.43;46.29
27685;BME280;46113;50.130;8.526;2023-03-01T09:26:11;99902.84;;;-0.50;46.69
27685;BME280;46113;50.130;8.526;2023-03-01T09:28:38;99899.38;;;-0.57;46.46
27685;BME280;46113;50.130;8.526;2023-03-01T09:31:06;99899.41;;;-0.69;46.27
27685;BME280;46113;50.130;8.526;2023-03-01T09:33:33;99894.19;;;-0.65;47.04
27685;BME280;46113;50.130;8.526;2023-03-01T09:36:02;99887.28;;;-0.75;46.15
27685;BME280;46113;50.130;8.526;2023-03-01T09:38:30;99880.25;;;-0.29;45.49
27685;BME280;46113;50.130;8.526;2023-03-01T09:40:57;99878.47;;;-0.16;44.80
27685;BME280;46113;50.130;8.526;2023-03-01T09:46:08;99875.03;;;-0.17;43.75
27685;BME280;46113;50.130;8.526;2023-03-01T09:48:42;99874.97;;;-0.01;43.55
27685;BME280;46113;50.130;8.526;2023-03-01T09:51:17;99874.88;;;0.18;43.37
27685;BME280;46113;50.130;8.526;2023-03-01T09:53:45;99877.56;;;-0.01;44.23
27685;BME280;46113;50.130;8.526;2023-03-01T09:56:28;99864.53;;;0.08;42.98
27685;BME280;46113;50.130;8.526;2023-03-01T09:59:21;99867.91;;;0.23;43.18
27685;BME280;46113;50.130;8.526;2023-03-01T10:01:56;99863.34;;;0.61;43.31
27685;BME280;46113;50.130;8.526;2023-03-01T10:04:44;99861.94;;;0.02;41.75
27685;BME280;46113;50.130;8.526;2023-03-01T10:07:32;99863.56;;;0.22;42.99
27685;BME280;46113;50.130;8.526;2023-03-01T10:10:06;99864.25;;;0.52;42.35
27685;BME280;46113;50.130;8.526;2023-03-01T10:12:37;99867.88;;;0.32;41.69
27685;BME280;46113;50.130;8.526;2023-03-01T10:17:48;99873.22;;;0.04;40.97
27685;BME280;46113;50.130;8.526;2023-03-01T10:20:21;99852.22;;;0.34;40.73
27685;BME280;46113;50.130;8.526;2023-03-01T10:22:49;99852.13;;;0.49;41.38
27685;BME280;46113;50.130;8.526;2023-03-01T10:28:30;99840.69;;;0.72;40.65
27685;BME280;46113;50.130;8.526;2023-03-01T10:30:58;99833.69;;;0.80;39.79
27685;BME280;46113;50.130;8.526;2023-03-01T10:33:29;99836.19;;;0.91;40.28
27685;BME280;46113;50.130;8.526;2023-03-01T10:35:57;99840.81;;;0.53;39.57
27685;BME280;46113;50.130;8.526;2023-03-01T10:38:24;99834.66;;;0.62;39.43
27685;BME280;46113;50.130;8.526;2023-03-01T10:40:58;99827.63;;;0.77;39.31
27685;BME280;46113;50.130;8.526;2023-03-01T10:43:28;99834.59;;;0.75;39.74
27685;BME280;46113;50.130;8.526;2023-03-01T10:45:58;99822.38;;;0.80;38.93
27685;BME280;46113;50.130;8.526;2023-03-01T10:48:26;99824.41;;;0.45;38.77
27685;BME280;46113;50.130;8.526;2023-03-01T10:53:36;99815.59;;;0.63;39.56
27685;BME280;46113;50.130;8.526;2023-03-01T10:56:10;99824.28;;;0.59;38.25
27685;BME280;46113;50.130;8.526;2023-03-01T10:58:39;99815.78;;;0.35;39.14
27685;BME280;46113;50.130;8.526;2023-03-01T11:01:24;99808.53;;;0.78;38.88
27685;BME280;46113;50.130;8.526;2023-03-01T11:04:10;99810.06;;;0.97;38.30
27685;BME280;46113;50.130;8.526;2023-03-01T11:06:39;99802.38;;;0.87;37.24
27685;BME280;46113;50.130;8.526;2023-03-01T11:09:17;99799.91;;;0.66;41.01
27685;BME280;46113;50.130;8.526;2023-03-01T11:11:45;99792.84;;;0.84;41.59
27685;BME280;46113;50.130;8.526;2023-03-01T11:14:21;99790.25;;;0.82;40.65
27685;BME280;46113;50.130;8.526;2023-03-01T11:25:17;99783.16;;;0.99;42.81
27685;BME280;46113;50.130;8.526;2023-03-01T11:27:46;99778.66;;;1.13;41.77
27685;BME280;46113;50.130;8.526;2023-03-01T11:30:29;99782.22;;;1.09;42.82
27685;BME280;46113;50.130;8.526;2023-03-01T11:35:27;99774.47;;;0.95;43.13
27685;BME280;46113;50.130;8.526;2023-03-01T11:40:29;99775.16;;;1.17;42.93
27685;BME280;46113;50.130;8.526;2023-03-01T11:43:05;99776.13;;;1.07;42.88
27685;BME280;46113;50.130;8.526;2023-03-01T11:45:47;99763.13;;;1.02;43.28
27685;BME280;46113;50.130;8.526;2023-03-01T11:51:51;99749.06;;;1.20;42.95
27685;BME280;46113;50.130;8.526;2023-03-01T11:57:46;99748.81;;;1.41;42.07
27685;BME280;46113;50.130;8.526;2023-03-01T12:09:00;99731.59;;;1.29;42.33
27685;BME280;46113;50.130;8.526;2023-03-01T12:36:13;99676.59;;;1.47;41.21
27685;BME280;46113;50.130;8.526;2023-03-01T12:38:46;99664.91;;;1.75;41.23
27685;BME280;46113;50.130;8.526;2023-03-01T12:49:15;99657.94;;;1.75;41.30
27685;BME280;46113;50.130;8.526;2023-03-01T12:51:56;99664.66;;;1.91;41.06
27685;BME280;46113;50.130;8.526;2023-03-01T12:54:31;99647.00;;;2.08;40.13
27685;BME280;46113;50.130;8.526;2023-03-01T12:57:18;99651.59;;;1.92;40.62
27685;BME280;46113;50.130;8.526;2023-03-01T13:02:58;99650.56;;;2.02;40.82
27685;BME280;46113;50.130;8.526;2023-03-01T13:05:47;99649.75;;;1.99;40.70
27685;BME280;46113;50.130;8.526;2023-03-01T13:08:33;99635.88;;;1.97;41.28
27685;BME280;46113;50.130;8.526;2023-03-01T13:11:05;99644.31;;;2.11;40.81
27685;BME280;46113;50.130;8.526;2023-03-01T13:13:33;99639.81;;;2.21;40.90
27685;BME280;46113;50.130;8.526;2023-03-01T13:19:07;99629.13;;;2.37;40.47
27685;BME280;46113;50.130;8.526;2023-03-01T13:21:36;99636.03;;;1.87;41.37
27685;BME280;46113;50.130;8.526;2023-03-01T13:24:03;99632.06;;;2.17;41.82
27685;BME280;46113;50.130;8.526;2023-03-01T13:26:29;99628.91;;;1.97;41.38
27685;BME280;46113;50.130;8.526;2023-03-01T13:28:57;99621.63;;;2.17;41.79
27685;BME280;46113;50.130;8.526;2023-03-01T13:33:55;99612.84;;;2.21;41.80
27685;BME280;46113;50.130;8.526;2023-03-01T13:43:47;99629.75;;;1.99;41.53
27685;BME280;46113;50.130;8.526;2023-03-01T13:46:52;99618.34;;;2.05;41.62
27685;BME280;46113;50.130;8.526;2023-03-01T13:50:06;99616.41;;;2.17;41.95
27685;BME280;46113;50.130;8.526;2023-03-01T13:57:32;99608.50;;;2.21;41.58
27685;BME280;46113;50.130;8.526;2023-03-01T14:05:05;99600.03;;;2.08;41.71
27685;BME280;46113;50.130;8.526;2023-03-01T14:16:01;99594.56;;;2.22;42.01
27685;BME280;46113;50.130;8.526;2023-03-01T14:18:43;99601.75;;;2.08;42.53
27685;BME280;46113;50.130;8.526;2023-03-01T14:21:34;99586.84;;;2.16;41.46
27685;BME280;46113;50.130;8.526;2023-03-01T14:24:16;99599.16;;;2.08;42.19
27685;BME280;46113;50.130;8.526;2023-03-01T14:26:44;99597.59;;;1.97;41.83
27685;BME280;46113;50.130;8.526;2023-03-01T14:31:52;99593.28;;;1.93;41.91
27685;BME280;46113;50.130;8.526;2023-03-01T14:34:24;99601.59;;;1.65;41.84
27685;BME280;46113;50.130;8.526;2023-03-01T14:36:52;99577.50;;;2.02;41.96
27685;BME280;46113;50.130;8.526;2023-03-01T14:39:25;99595.38;;;1.72;41.85
27685;BME280;46113;50.130;8.526;2023-03-01T14:41:55;99608.41;;;1.74;42.16
27685;BME280;46113;50.130;8.526;2023-03-01T14:44:36;99586.63;;;1.77;41.96
27685;BME280;46113;50.130;8.526;2023-03-01T14:47:12;99581.41;;;1.77;42.08
27685;BME280;46113;50.130;8.526;2023-03-01T14:49:41;99581.50;;;1.70;42.20
27685;BME280;46113;50.130;8.526;2023-03-01T14:52:21;99575.78;;;2.01;41.91
27685;BME280;46113;50.130;8.526;2023-03-01T14:54:56;99579.63;;;1.79;42.42
27685;BME280;46113;50.130;8.526;2023-03-01T14:57:27;99585.84;;;1.70;43.40
27685;BME280;46113;50.130;8.526;2023-03-01T15:00:10;99584.25;;;1.61;43.41
27685;BME280;46113;50.130;8.526;2023-03-01T15:02:54;99581.13;;;1.35;44.20
27685;BME280;46113;50.130;8.526;2023-03-01T15:05:31;99575.63;;;1.56;43.52
27685;BME280;46113;50.130;8.526;2023-03-01T15:08:30;99578.38;;;1.48;43.85
27685;BME280;46113;50.130;8.526;2023-03-01T15:11:28;99573.91;;;1.56;43.78
27685;BME280;46113;50.130;8.526;2023-03-01T15:14:40;99569.81;;;1.38;43.91
27685;BME280;46113;50.130;8.526;2023-03-01T15:20:34;99568.34;;;1.20;44.22
27685;BME280;46113;50.130;8.526;2023-03-01T15:23:31;99567.44;;;1.22;43.98
27685;BME280;46113;50.130;8.526;2023-03-01T15:26:06;99566.63;;;1.19;44.62
27685;BME280;46113;50.130;8.526;2023-03-01T15:29:22;99574.38;;;1.24;44.12
27685;BME280;46113;50.130;8.526;2023-03-01T15:32:35;99587.66;;;1.02;44.82
27685;BME280;46113;50.130;8.526;2023-03-01T15:35:32;99595.38;;;1.11;45.05
27685;BME280;46113;50.130;8.526;2023-03-01T15:38:02;99598.91;;;1.07;45.07
27685;BME280;46113;50.130;8.526;2023-03-01T15:40:30;99601.38;;;1.19;44.35
27685;BME280;46113;50.130;8.526;2023-03-01T15:43:42;99604.19;;;0.99;45.88
27685;BME280;46113;50.130;8.526;2023-03-01T15:48:57;99605.81;;;1.13;45.88
27685;BME280;46113;50.130;8.526;2023-03-01T15:51:37;99607.75;;;0.93;44.94
27685;BME280;46113;50.130;8.526;2023-03-01T15:54:17;99609.66;;;0.79;45.58
27685;BME280;46113;50.130;8.526;2023-03-01T15:56:45;99600.88;;;0.88;45.36
27685;BME280;46113;50.130;8.526;2023-03-01T15:59:15;99608.56;;;0.99;45.43
27685;BME280;46113;50.130;8.526;2023-03-01T16:01:48;99598.03;;;1.08;44.72
27685;BME280;46113;50.130;8.526;2023-03-01T16:04:56;99599.88;;;0.98;45.74
27685;BME280;46113;50.130;8.526;2023-03-01T16:07:43;99596.56;;;0.83;44.94
27685;BME280;46113;50.130;8.526;2023-03-01T16:10:12;99599.84;;;1.00;45.93
27685;BME280;46113;50.130;8.526;2023-03-01T16:12:43;99603.88;;;1.26;45.03
27685;BME280;46113;50.130;8.526;2023-03-01T16:17:45;99610.38;;;0.92;45.86
27685;BME280;46113;50.130;8.526;2023-03-01T16:20:21;99621.13;;;0.62;45.88
27685;BME280;46113;50.130;8.526;2023-03-01T16:22:58;99621.06;;;0.68;45.62
27685;BME280;46113;50.130;8.526;2023-03-01T16:25:27;99618.19;;;0.92;45.69
27685;BME280;46113;50.130;8.526;2023-03-01T16:27:53;99611.28;;;0.88;45.67
27685;BME280;46113;50.130;8.526;2023-03-01T16:30:22;99618.59;;;0.54;45.20
27685;BME280;46113;50.130;8.526;2023-03-01T16:32:49;99617.59;;;0.68;45.44
27685;BME280;46113;50.130;8.526;2023-03-01T16:35:18;99620.28;;;0.60;45.94
27685;BME280;46113;50.130;8.526;2023-03-01T16:37:45;99618.44;;;0.70;45.87
27685;BME280;46113;50.130;8.526;2023-03-01T16:40:18;99619.31;;;0.67;46.13
27685;BME280;46113;50.130;8.526;2023-03-01T16:42:50;99616.78;;;0.64;45.61
27685;BME280;46113;50.130;8.526;2023-03-01T16:45:18;99621.13;;;0.62;45.77
27685;BME280;46113;50.130;8.526;2023-03-01T16:47:51;99606.44;;;0.58;45.82
27685;BME280;46113;50.130;8.526;2023-03-01T16:50:21;99610.88;;;0.47;46.32
27685;BME280;46113;50.130;8.526;2023-03-01T16:52:48;99618.81;;;0.37;45.69
27685;BME280;46113;50.130;8.526;2023-03-01T16:55:15;99615.31;;;0.35;46.52
27685;BME280;46113;50.130;8.526;2023-03-01T16:57:47;99631.81;;;0.36;46.61
27685;BME280;46113;50.130;8.526;2023-03-01T17:00:19;99623.28;;;0.23;47.17
27685;BME280;46113;50.130;8.526;2023-03-01T17:03:33;99624.13;;;0.22;46.48
27685;BME280;46113;50.130;8.526;2023-03-01T17:13:33;99619.88;;;0.11;46.63
27685;BME280;46113;50.130;8.526;2023-03-01T17:16:27;99624.25;;;0.09;47.62
27685;BME280;46113;50.130;8.526;2023-03-01T17:19:40;99619.94;;;0.05;47.31
27685;BME280;46113;50.130;8.526;2023-03-01T17:22:52;99615.75;;;-0.13;46.81
27685;BME280;46113;50.130;8.526;2023-03-01T17:25:40;99618.56;;;-0.41;47.74
27685;BME280;46113;50.130;8.526;2023-03-01T17:28:28;99621.03;;;-0.24;48.48
27685;BME280;46113;50.130;8.526;2023-03-01T17:30:56;99634.00;;;-0.18;48.15
27685;BME280;46113;50.130;8.526;2023-03-01T17:33:23;99623.56;;;-0.15;47.41
27685;BME280;46113;50.130;8.526;2023-03-01T17:35:52;99625.41;;;-0.28;47.33
27685;BME280;46113;50.130;8.526;2023-03-01T17:38:33;99628.03;;;-0.34;47.73
27685;BME280;46113;50.130;8.526;2023-03-01T17:41:03;99629.75;;;-0.31;48.01
27685;BME280;46113;50.130;8.526;2023-03-01T17:43:30;99630.63;;;-0.31;48.30
27685;BME280;46113;50.130;8.526;2023-03-01T17:45:57;99637.69;;;-0.52;48.79
27685;BME280;46113;50.130;8.526;2023-03-01T17:48:23;99633.41;;;-0.59;49.53
27685;BME280;46113;50.130;8.526;2023-03-01T17:50:51;99643.03;;;-0.80;48.16
27685;BME280;46113;50.130;8.526;2023-03-01T17:53:18;99635.13;;;-0.55;48.76
27685;BME280;46113;50.130;8.526;2023-03-01T17:55:47;99632.56;;;-0.64;49.14
27685;BME280;46113;50.130;8.526;2023-03-01T17:58:21;99629.09;;;-0.65;49.90
27685;BME280;46113;50.130;8.526;2023-03-01T18:00:49;99632.56;;;-0.66;48.89
27685;BME280;46113;50.130;8.526;2023-03-01T18:03:16;99638.66;;;-0.68;48.87
27685;BME280;46113;50.130;8.526;2023-03-01T18:05:43;99630.94;;;-0.84;49.40
27685;BME280;46113;50.130;8.526;2023-03-01T18:08:10;99633.63;;;-1.10;49.96
27685;BME280;46113;50.130;8.526;2023-03-01T18:10:37;99623.25;;;-1.06;50.50
27685;BME280;46113;50.130;8.526;2023-03-01T18:13:08;99638.00;;;-1.20;51.86
27685;BME280;46113;50.130;8.526;2023-03-01T18:15:36;99634.56;;;-1.27;51.83
27685;BME280;46113;50.130;8.526;2023-03-01T18:20:54;99638.91;;;-1.31;51.60
27685;BME280;46113;50.130;8.526;2023-03-01T18:23:21;99638.94;;;-1.51;52.90
27685;BME280;46113;50.130;8.526;2023-03-01T18:25:48;99632.94;;;-1.69;53.28
27685;BME280;46113;50.130;8.526;2023-03-01T18:28:14;99632.06;;;-1.74;53.19
27685;BME280;46113;50.130;8.526;2023-03-01T18:30:41;99625.97;;;-1.59;52.81
27685;BME280;46113;50.130;8.526;2023-03-01T18:33:07;99622.56;;;-1.79;53.80
27685;BME280;46113;50.130;8.526;2023-03-01T18:35:37;99615.63;;;-1.74;53.75
27685;BME280;46113;50.130;8.526;2023-03-01T18:38:04;99623.41;;;-1.84;53.20
27685;BME280;46113;50.130;8.526;2023-03-01T18:40:31;99626.91;;;-2.05;54.16
27685;BME280;46113;50.130;8.526;2023-03-01T18:42:57;99623.41;;;-1.84;52.33
27685;BME280;46113;50.130;8.526;2023-03-01T18:45:24;99622.56;;;-1.79;52.66
27685;BME280;46113;50.130;8.526;2023-03-01T18:47:51;99625.16;;;-1.84;53.63
27685;BME280;46113;50.130;8.526;2023-03-01T18:50:17;99621.72;;;-2.03;52.38
27685;BME280;46113;50.130;8.526;2023-03-01T18:52:44;99621.72;;;-1.89;53.82
27685;BME280;46113;50.130;8.526;2023-03-01T18:55:11;99621.69;;;-1.77;52.20
27685;BME280;46113;50.130;8.526;2023-03-01T18:57:37;99623.41;;;-1.71;52.00
27685;BME280;46113;50.130;8.526;2023-03-01T19:00:04;99622.56;;;-2.22;54.37
27685;BME280;46113;50.130;8.526;2023-03-01T19:02:31;99624.31;;;-2.03;52.99
27685;BME280;46113;50.130;8.526;2023-03-01T19:04:58;99625.13;;;-2.43;55.36
27685;BME280;46113;50.130;8.526;2023-03-01T19:07:24;99624.22;;;-2.66;55.92
27685;BME280;46113;50.130;8.526;2023-03-01T19:09:51;99621.59;;;-2.81;56.79
27685;BME280;46113;50.130;8.526;2023-03-01T19:12:18;99628.50;;;-2.90;56.89
27685;BME280;46113;50.130;8.526;2023-03-01T19:14:44;99627.66;;;-2.87;57.33
27685;BME280;46113;50.130;8.526;2023-03-01T19:17:11;99624.09;;;-3.11;57.40
27685;BME280;46113;50.130;8.526;2023-03-01T19:19:38;99629.16;;;-3.31;58.36
27685;BME280;46113;50.130;8.526;2023-03-01T19:22:05;99624.00;;;-3.30;59.03
27685;BME280;46113;50.130;8.526;2023-03-01T19:24:36;99619.69;;;-3.26;58.32
27685;BME280;46113;50.130;8.526;2023-03-01T19:27:02;99630.88;;;-3.35;58.25
27685;BME280;46113;50.130;8.526;2023-03-01T19:29:29;99622.31;;;-3.28;57.91
27685;BME280;46113;50.130;8.526;2023-03-01T19:31:56;99632.59;;;-3.34;57.27
27685;BME280;46113;50.130;8.526;2023-03-01T19:34:22;99628.31;;;-3.30;58.25
27685;BME280;46113;50.130;8.526;2023-03-01T19:36:50;99629.16;;;-3.36;59.05
27685;BME280;46113;50.130;8.526;2023-03-01T19:39:17;99622.22;;;-3.45;59.26
27685;BME280;46113;50.130;8.526;2023-03-01T19:41:44;99625.50;;;-3.69;60.39
27685;BME280;46113;50.130;8.526;2023-03-01T19:44:12;99624.69;;;-3.62;59.55
27685;BME280;46113;50.130;8.526;2023-03-01T19:46:39;99629.00;;;-3.61;60.10
27685;BME280;46113;50.130;8.526;2023-03-01T19:49:06;99628.09;;;-3.66;59.90
27685;BME280;46113;50.130;8.526;2023-03-01T19:51:34;99622.06;;;-3.68;60.62
27685;BME280;46113;50.130;8.526;2023-03-01T19:54:04;99624.66;;;-3.65;61.25
27685;BME280;46113;50.130;8.526;2023-03-01T19:56:31;99626.44;;;-3.56;60.30
27685;BME280;46113;50.130;8.526;2023-03-01T19:58:59;99623.88;;;-3.58;60.64
27685;BME280;46113;50.130;8.526;2023-03-01T20:01:29;99628.13;;;-3.64;61.44
27685;BME280;46113;50.130;8.526;2023-03-01T20:03:59;99633.16;;;-3.85;61.72
27685;BME280;46113;50.130;8.526;2023-03-01T20:06:26;99634.03;;;-3.83;61.74
27685;BME280;46113;50.130;8.526;2023-03-01T20:08:55;99635.72;;;-3.86;61.60
27685;BME280;46113;50.130;8.526;2023-03-01T20:11:22;99627.97;;;-3.85;61.52
27685;BME280;46113;50.130;8.526;2023-03-01T20:13:48;99624.53;;;-3.82;61.11
27685;BME280;46113;50.130;8.526;2023-03-01T20:16:17;99629.69;;;-3.87;61.75
27685;BME280;46113;50.130;8.526;2023-03-01T20:18:45;99633.09;;;-3.91;61.53
27685;BME280;46113;50.130;8.526;2023-03-01T20:21:12;99637.19;;;-4.19;62.49
27685;BME280;46113;50.130;8.526;2023-03-01T20:23:49;99633.66;;;-4.31;62.84
27685;BME280;46113;50.130;8.526;2023-03-01T20:26:16;99638.72;;;-4.37;63.06
27685;BME280;46113;50.130;8.526;2023-03-01T20:28:47;99633.59;;;-4.34;63.47
27685;BME280;46113;50.130;8.526;2023-03-01T20:31:15;99634.50;;;-4.30;63.76
27685;BME280;46113;50.130;8.526;2023-03-01T20:33:43;99641.47;;;-4.22;63.61
27685;BME280;46113;50.130;8.526;2023-03-01T20:36:10;99635.44;;;-4.22;63.57
27685;BME280;46113;50.130;8.526;2023-03-01T20:38:37;99640.53;;;-4.31;63.56
27685;BME280;46113;50.130;8.526;2023-03-01T20:41:06;99637.06;;;-4.30;64.02
27685;BME280;46113;50.130;8.526;2023-03-01T20:43:34;99634.47;;;-4.33;64.50
27685;BME280;46113;50.130;8.526;2023-03-01T20:46:05;99635.31;;;-4.35;63.98
27685;BME280;46113;50.130;8.526;2023-03-01T20:48:33;99633.56;;;-4.39;64.42
27685;BME280;46113;50.130;8.526;2023-03-01T20:51:04;99635.75;;;-4.78;63.60
27685;BME280;46113;50.130;8.526;2023-03-01T20:53:30;99639.31;;;-4.68;63.46
27685;BME280;46113;50.130;8.526;2023-03-01T20:56:05;99640.31;;;-4.55;63.61
27685;BME280;46113;50.130;8.526;2023-03-01T20:58:32;99634.25;;;-4.55;63.52
27685;BME280;46113;50.130;8.526;2023-03-01T21:01:02;99641.22;;;-4.48;63.48
27685;BME280;46113;50.130;8.526;2023-03-01T21:03:29;99634.38;;;-4.44;63.23
27685;BME280;46113;50.130;8.526;2023-03-01T21:05:58;99641.31;;;-4.40;63.66
27685;BME280;46113;50.130;8.526;2023-03-01T21:08:25;99636.16;;;-4.39;63.30
27685;BME280;46113;50.130;8.526;2023-03-01T21:10:52;99636.09;;;-4.46;63.58
27685;BME280;46113;50.130;8.526;2023-03-01T21:13:20;99631.78;;;-4.46;63.91
27685;BME280;46113;50.130;8.526;2023-03-01T21:15:55;99642.94;;;-4.49;63.49
27685;BME280;46113;50.130;8.526;2023-03-01T21:18:22;99636.06;;;-4.45;63.44
27685;BME280;46113;50.130;8.526;2023-03-01T21:20:59;99643.75;;;-4.53;63.67
27685;BME280;46113;50.130;8.526;2023-03-01T21:23:31;99631.69;;;-4.54;64.61
27685;BME280;46113;50.130;8.526;2023-03-01T21:26:06;99639.47;;;-4.51;64.46
27685;BME280;46113;50.130;8.526;2023-03-01T21:28:34;99631.56;;;-4.65;63.47
27685;BME280;46113;50.130;8.526;2023-03-01T21:31:07;99638.38;;;-4.73;63.95
27685;BME280;46113;50.130;8.526;2023-03-01T21:33:35;99632.50;;;-4.61;64.35
27685;BME280;46113;50.130;8.526;2023-03-01T21:36:04;99624.75;;;-4.61;64.18
27685;BME280;46113;50.130;8.526;2023-03-01T21:38:33;99625.59;;;-4.64;64.86
27685;BME280;46113;50.130;8.526;2023-03-01T21:41:08;99626.31;;;-4.76;64.85
27685;BME280;46113;50.130;8.526;2023-03-01T21:43:36;99628.81;;;-4.83;65.23
27685;BME280;46113;50.130;8.526;2023-03-01T21:46:08;99633.88;;;-4.91;65.01
27685;BME280;46113;50.130;8.526;2023-03-01T21:48:39;99624.56;;;-4.78;63.89
27685;BME280;46113;50.130;8.526;2023-03-01T21:51:10;99621.00;;;-4.90;64.24
27685;BME280;46113;50.130;8.526;2023-03-01T21:53:37;99624.53;;;-4.81;64.67
27685;BME280;46113;50.130;8.526;2023-03-01T21:56:04;99630.28;;;-5.04;65.03
27685;BME280;46113;50.130;8.526;2023-03-01T21:58:31;99628.38;;;-5.19;65.68
